Flight Track Log - Related Links

Times and Time Zones

All times are in EDT time to prevent confusion due to time zone crossing. See the AAL1129 flight status page for this flight to view local times or setup timezone preferences in your user account.

Time Position Orientation Groundspeed Altitude Reporting Facility
EDT Latitude Longitude Course Direction KTS MPH feet Rate Location/Type
Tue 04:41:37 PM 39.7000 -86.3167 252° West 167 192 1,400  Level Indianapolis TRACON
Tue 04:41:55 PM 39.7000 -86.3333 270° West 173 199 2,200 2,231 Climbing Indianapolis TRACON
Tue 04:42:55 PM 39.6500 -86.3833 218° Southwest 251 289 4,300 2,791 Climbing Indianapolis TRACON
Tue 04:44:00 PM 39.6131 -86.6849 256° West  Level FlightAware Approximate
Tue 04:44:04 PM 39.6258 -86.4961 254° West 273 314 8,200  Level Indianapolis Center
Tue 04:45:00 PM 39.5858 -86.8216 255° West  Level FlightAware Approximate
Tue 04:45:06 PM 39.6103 -86.5989 259° West 283 326 10,700  Level Indianapolis Center
Tue 04:46:00 PM 39.5493 -86.9529 252° West  Level FlightAware Approximate
Tue 04:46:08 PM 39.5886 -86.7217 257° West 332 382 12,900  Level Indianapolis Center
Tue 04:47:00 PM 39.5158 -87.0871 252° West  Level FlightAware Approximate
Tue 04:47:10 PM 39.5928 -86.8539 272° West 358 412 15,400  Level Indianapolis Center
Tue 04:48:12 PM 39.5958 -86.9942 272° West 379 436 18,600 2,613 Climbing Indianapolis Center
Tue 04:49:14 PM 39.5931 -87.1353 269° West 388 447 20,800 2,081 Climbing Indianapolis Center
Tue 04:50:16 PM 39.5956 -87.3086 271° West 406 467 22,900 1,887 Climbing Indianapolis Center
Tue 04:51:18 PM 39.5944 -87.4633 270° West 420 483 24,700 1,548 Climbing Indianapolis Center
Tue 04:52:20 PM 39.5956 -87.6222 271° West 433 498 26,100 1,452 Climbing Indianapolis Center
Tue 04:53:22 PM 39.5942 -87.7858 269° West 448 516 27,700 1,500 Climbing Indianapolis Center
Tue 04:54:24 PM 39.5939 -87.9533 270° West 458 527 29,200 1,385 Climbing Indianapolis Center
Tue 04:54:40 PM 39.5931 -87.9908 268° West 458 527 29,500 2,154 Climbing Kansas City Center
Tue 04:55:42 PM 39.5922 -88.1553 270° West 458 527 32,000 1,887 Climbing Kansas City Center
Tue 04:56:44 PM 39.5900 -88.3431 269° West 442 509 33,400 1,210 Climbing Kansas City Center
Tue 04:57:46 PM 39.5900 -88.4981 270° West 435 501 34,500 1,065 Climbing Kansas City Center
Tue 04:58:48 PM 39.5883 -88.6400 269° West 430 495 35,600 726 Climbing Kansas City Center
Tue 04:59:50 PM 39.5339 -88.7653 241° Southwest 424 488 36,000 194 Climbing Kansas City Center
Tue 05:00:52 PM 39.4564 -88.8811 229° Southwest 425 489 36,000  Level Kansas City Center
Tue 05:01:54 PM 39.3769 -89.0258 235° Southwest 427 491 36,000  Level Kansas City Center
Tue 05:02:56 PM 39.3064 -89.1503 234° Southwest 429 494 36,000  Level Kansas City Center
Tue 05:03:58 PM 39.2367 -89.2742 234° Southwest 428 493 36,000  Level Kansas City Center
Tue 05:05:00 PM 39.1561 -89.4200 235° Southwest 427 491 36,000  Level Kansas City Center
Tue 05:06:02 PM 39.0850 -89.5464 234° Southwest 434 499 36,000  Level Kansas City Center
Tue 05:07:04 PM 39.0092 -89.6806 234° Southwest 433 498 36,000  Level Kansas City Center
Tue 05:08:06 PM 38.9375 -89.8050 234° Southwest 434 499 36,000  Level Kansas City Center
Tue 05:09:09 PM 38.8694 -89.9228 233° Southwest 434 499 36,000  Level Kansas City Center
Tue 05:10:11 PM 38.7911 -90.0628 234° Southwest 431 496 36,000  Level Kansas City Center
Tue 05:11:13 PM 38.7178 -90.1872 233° Southwest 434 499 36,000  Level Kansas City Center
Tue 05:12:15 PM 38.6442 -90.3114 233° Southwest 436 502 36,000  Level Kansas City Center
Tue 05:13:17 PM 38.5731 -90.4369 234° Southwest 436 502 36,000  Level Kansas City Center
Tue 05:14:19 PM 38.4964 -90.5614 232° Southwest 443 510 36,000  Level Kansas City Center
Tue 05:15:21 PM 38.4103 -90.7033 232° Southwest 440 506 36,000  Level Kansas City Center
Tue 05:16:23 PM 38.3358 -90.8269 233° Southwest 439 505 36,000  Level Kansas City Center
Tue 05:17:25 PM 38.2614 -90.9494 232° Southwest 440 506 36,000  Level Kansas City Center
Tue 05:18:27 PM 38.1864 -91.0731 232° Southwest 442 509 36,000  Level Kansas City Center
Tue 05:19:29 PM 38.1056 -91.2050 232° Southwest 441 507 36,000  Level Kansas City Center
Tue 05:20:31 PM 38.0311 -91.3272 232° Southwest 439 505 36,000  Level Kansas City Center
Tue 05:21:33 PM 37.9556 -91.4508 232° Southwest 440 506 36,000  Level Kansas City Center
Tue 05:22:35 PM 37.8800 -91.5736 232° Southwest 438 504 36,000  Level Kansas City Center
Tue 05:23:37 PM 37.7894 -91.7203 232° Southwest 438 504 36,000  Level Kansas City Center
Tue 05:24:39 PM 37.7125 -91.8433 232° Southwest 442 509 36,000  Level Kansas City Center
Tue 05:25:41 PM 37.6358 -91.9681 232° Southwest 444 511 36,000  Level Kansas City Center
Tue 05:26:43 PM 37.5583 -92.0917 232° Southwest 444 511 36,000  Level Kansas City Center
Tue 05:27:45 PM 37.4814 -92.2156 232° Southwest 445 512 36,000  Level Kansas City Center
Tue 05:28:47 PM 37.4036 -92.3406 232° Southwest 447 514 36,000  Level Kansas City Center
Tue 05:29:49 PM 37.3250 -92.4628 231° Southwest 447 514 36,000  Level Kansas City Center
Tue 05:30:51 PM 37.2467 -92.5853 231° Southwest 446 513 36,000  Level Kansas City Center
Tue 05:31:53 PM 37.1519 -92.7306 231° Southwest 446 513 36,000  Level Kansas City Center
Tue 05:32:55 PM 37.0733 -92.8533 231° Southwest 449 517 36,000  Level Kansas City Center
Tue 05:33:57 PM 36.9950 -92.9756 231° Southwest 448 516 36,000  Level Kansas City Center
Tue 05:34:59 PM 36.9164 -93.0969 231° Southwest 449 517 36,000  Level Kansas City Center
Tue 05:36:01 PM 36.8047 -93.1844 212° Southwest 448 516 36,000  Level Kansas City Center
Tue 05:36:21 PM 36.7678 -93.2214 219° Southwest 446 513 36,000  Level Memphis Center
Tue 05:37:21 PM 36.6617 -93.3006 211° Southwest 446 513 36,000  Level Memphis Center
Tue 05:38:21 PM 36.5597 -93.3872 214° Southwest 451 519 36,000  Level Memphis Center
Tue 05:39:21 PM 36.4642 -93.4611 212° Southwest 451 519 36,000  Level Memphis Center
Tue 05:40:21 PM 36.3681 -93.5478 216° Southwest 445 512 36,000  Level Memphis Center
Tue 05:41:21 PM 36.2678 -93.6339 215° Southwest 440 506 36,000  Level Memphis Center
Tue 05:42:21 PM 36.1678 -93.7147 213° Southwest 440 506 36,000  Level Memphis Center
Tue 05:43:21 PM 36.0694 -93.8006 215° Southwest 435 501 36,000  Level Memphis Center
Tue 05:44:21 PM 35.9583 -93.8933 214° Southwest 435 501 36,000  Level Memphis Center
Tue 05:45:21 PM 35.8600 -93.9761 214° Southwest 435 501 36,000  Level Memphis Center
Tue 05:46:21 PM 35.7703 -94.0542 215° Southwest 430 495 36,000  Level Memphis Center
Tue 05:47:21 PM 35.6761 -94.1317 214° Southwest 433 498 36,000  Level Memphis Center
Tue 05:48:21 PM 35.5672 -94.2186 213° Southwest 424 488 36,000  Level Memphis Center
Tue 05:49:21 PM 35.4708 -94.3008 215° Southwest 430 495 36,000  Level Memphis Center
Tue 05:50:21 PM 35.3828 -94.3756 215° Southwest 430 495 36,000  Level Memphis Center
Tue 05:51:21 PM 35.2758 -94.4594 213° Southwest 430 495 36,000  Level Memphis Center
Tue 05:52:21 PM 35.1792 -94.5411 215° Southwest 430 495 36,000  Level Memphis Center
Tue 05:53:54 PM 35.0300 -94.6675 215° Southwest 412 474 36,000  Level Fort Worth Center
Tue 05:54:54 PM 34.9422 -94.7592 221° Southwest 423 487 36,000  Level Fort Worth Center
Tue 05:55:54 PM 34.8647 -94.8400 221° Southwest 423 487 36,000  Level Fort Worth Center
Tue 05:56:54 PM 34.7769 -94.9361 222° Southwest 423 487 36,000  Level Fort Worth Center
Tue 05:57:54 PM 34.6911 -95.0269 221° Southwest 423 487 36,000  Level Fort Worth Center
Tue 05:58:54 PM 34.6011 -95.1203 220° Southwest 423 487 36,000  Level Fort Worth Center
Tue 05:59:54 PM 34.5150 -95.2133 222° Southwest 429 494 36,000  Level Fort Worth Center
Tue 06:00:54 PM 34.4250 -95.3089 221° Southwest 429 494 36,000  Level Fort Worth Center
Tue 06:01:54 PM 34.3367 -95.4039 222° Southwest 429 494 36,000  Level Fort Worth Center
Tue 06:02:54 PM 34.2506 -95.4939 221° Southwest 424 488 36,000 -150 Level Fort Worth Center
Tue 06:03:54 PM 34.1519 -95.5939 220° Southwest 430 495 35,700 -1,500 Descending Fort Worth Center
Tue 06:04:54 PM 34.0697 -95.6808 221° Southwest 430 495 33,000 -2,850 Descending Fort Worth Center
Tue 06:05:54 PM 33.9750 -95.7781 220° Southwest 430 495 30,000 -3,300 Descending Fort Worth Center
Tue 06:06:54 PM 33.8803 -95.8772 221° Southwest 443 510 26,400 -3,500 Descending Fort Worth Center
Tue 06:07:54 PM 33.7875 -95.9764 222° Southwest 454 522 23,000 -3,350 Descending Fort Worth Center
Tue 06:08:54 PM 33.6842 -96.0831 221° Southwest 454 522 19,700 -2,950 Descending Fort Worth Center
Tue 06:09:54 PM 33.6036 -96.1639 220° Southwest 434 499 17,100 -2,700 Descending Fort Worth Center
Tue 06:10:54 PM 33.5128 -96.2625 222° Southwest 421 484 14,300 -2,550 Descending Fort Worth Center
Tue 06:11:54 PM 33.4467 -96.3456 226° Southwest 390 449 12,000 -1,750 Descending Fort Worth Center
Tue 06:12:54 PM 33.3722 -96.4333 225° Southwest 358 412 10,800 -1,050 Descending Fort Worth Center
Tue 06:13:54 PM 33.3144 -96.5011 224° Southwest 325 374 9,900 -1,100 Descending Fort Worth Center
Tue 06:14:54 PM 33.2628 -96.5761 231° Southwest 304 350 8,600 -1,500 Descending Fort Worth Center
Tue 06:15:54 PM 33.2403 -96.6733 255° West 278 320 6,900 -1,350 Descending Fort Worth Center
Tue 06:16:54 PM 33.2117 -96.7506 246° West 283 326 5,900 -800 Descending Fort Worth Center
Tue 06:17:54 PM 33.1597 -96.8303 232° Southwest 283 326 5,300 -650 Descending Fort Worth Center
Tue 06:18:54 PM 33.1183 -96.8950 233° Southwest 283 326 4,600 -1,169 Descending Fort Worth Center
Tue 06:19:52 PM 33.0667 -96.9667 229° Southwest 251 289 3,000 -1,655 Descending Dallas / Fort Worth TRACON

Login

Don't have an account? Register now (free) for customized features, flight alerts, and more!